createdAt,value
2023-06-10T00:00:19.056Z,91.86
2023-06-10T00:04:56.820Z,91.99
2023-06-10T00:09:16.250Z,92.08
2023-06-10T00:13:34.695Z,92.18
2023-06-10T00:17:54.363Z,92.31
2023-06-10T00:22:14.215Z,92.41
2023-06-10T00:26:31.892Z,92.52
2023-06-10T00:30:49.452Z,92.63
2023-06-10T00:35:08.626Z,92.70
2023-06-10T00:39:26.633Z,92.75
2023-06-10T00:43:45.433Z,92.79
2023-06-10T00:48:03.544Z,92.78
2023-06-10T00:52:24.087Z,92.76
2023-06-10T00:56:44.395Z,92.71
2023-06-10T01:01:04.307Z,92.60
2023-06-10T01:05:23.640Z,92.64
2023-06-10T01:09:58.532Z,92.62
2023-06-10T01:14:18.611Z,92.58
2023-06-10T01:18:37.124Z,92.55
2023-06-10T01:22:56.114Z,92.50
2023-06-10T01:27:17.458Z,92.46
2023-06-10T01:32:03.435Z,92.38
2023-06-10T01:36:22.981Z,92.28
2023-06-10T01:40:41.947Z,92.21
2023-06-10T01:45:00.688Z,92.14
2023-06-10T01:49:18.441Z,92.08
2023-06-10T01:53:36.851Z,92.03
2023-06-10T01:57:55.543Z,92.01
2023-06-10T02:02:13.740Z,91.95
2023-06-10T02:06:32.743Z,91.86
2023-06-10T02:10:51.408Z,91.77
2023-06-10T02:15:10.041Z,91.79
2023-06-10T02:19:29.393Z,91.79
2023-06-10T02:23:47.106Z,91.79
2023-06-10T02:28:07.074Z,91.72
2023-06-10T02:32:24.934Z,91.59
2023-06-10T02:36:42.964Z,91.50
2023-06-10T02:41:00.571Z,91.44
2023-06-10T02:45:20.693Z,91.35
2023-06-10T02:49:38.434Z,91.33
2023-06-10T02:53:56.073Z,91.32
2023-06-10T02:58:14.062Z,91.37
2023-06-10T03:02:33.512Z,91.45
2023-06-10T03:06:52.020Z,91.40
2023-06-10T03:11:09.898Z,91.34
2023-06-10T03:15:27.830Z,91.30
2023-06-10T03:19:45.333Z,91.00
2023-06-10T03:24:04.491Z,90.64
2023-06-10T03:28:23.734Z,90.21
2023-06-10T03:32:42.669Z,90.01
2023-06-10T03:37:00.503Z,89.46
2023-06-10T03:41:18.090Z,88.74
2023-06-10T03:45:37.310Z,88.25
2023-06-10T03:49:54.927Z,87.95
2023-06-10T03:54:12.985Z,87.81
2023-06-10T03:58:31.309Z,87.48
2023-06-10T04:02:50.983Z,87.51
2023-06-10T04:07:09.978Z,87.67
2023-06-10T04:11:27.795Z,87.84
2023-06-10T04:15:45.264Z,87.78
2023-06-10T04:20:05.247Z,87.80
2023-06-10T04:24:23.575Z,87.82
2023-06-10T04:28:41.283Z,87.86
2023-06-10T04:33:00.493Z,87.73
2023-06-10T04:37:18.394Z,86.95
2023-06-10T04:41:36.276Z,85.81
2023-06-10T04:45:53.822Z,85.21
2023-06-10T04:50:13.077Z,83.76
2023-06-10T04:54:31.248Z,83.73
2023-06-10T04:58:48.853Z,83.51
2023-06-10T05:03:07.075Z,82.92
2023-06-10T05:07:25.443Z,82.47
2023-06-10T05:11:42.943Z,81.78
2023-06-10T05:16:00.756Z,81.30
2023-06-10T05:20:18.263Z,81.23
2023-06-10T05:24:36.358Z,81.28
2023-06-10T05:28:54.716Z,81.87
2023-06-10T05:33:12.424Z,82.57
2023-06-10T05:37:31.412Z,83.96
2023-06-10T05:41:49.012Z,84.70
2023-06-10T05:46:06.936Z,85.43
2023-06-10T05:50:26.536Z,84.67
2023-06-10T05:54:44.105Z,84.30
2023-06-10T05:59:03.260Z,84.74
2023-06-10T06:03:20.993Z,84.29
2023-06-10T06:07:40.279Z,84.43
2023-06-10T06:11:58.120Z,84.97
2023-06-10T06:16:16.082Z,85.08
2023-06-10T06:20:34.228Z,85.53
2023-06-10T06:24:52.710Z,85.74
2023-06-10T06:29:10.415Z,85.41
2023-06-10T06:33:28.104Z,85.70
2023-06-10T06:37:47.229Z,85.70
2023-06-10T06:42:05.548Z,84.73
2023-06-10T06:46:23.652Z,84.59
2023-06-10T06:50:43.335Z,84.61
2023-06-10T06:55:01.934Z,84.61
2023-06-10T06:59:21.158Z,83.70
2023-06-10T07:03:38.790Z,83.30
2023-06-10T07:07:57.798Z,82.59
2023-06-10T07:12:15.568Z,81.10
2023-06-10T07:16:33.369Z,79.90
2023-06-10T07:20:50.869Z,79.86
2023-06-10T07:25:09.832Z,79.66
2023-06-10T07:29:27.793Z,80.53
2023-06-10T07:33:46.199Z,80.83
2023-06-10T07:38:04.551Z,80.50
2023-06-10T07:42:22.108Z,78.78
2023-06-10T07:46:41.320Z,75.70
2023-06-10T07:50:59.075Z,75.31
2023-06-10T07:55:17.035Z,71.96
2023-06-10T07:59:37.008Z,71.87
2023-06-10T08:03:56.122Z,70.31
2023-06-10T08:08:15.672Z,68.72
2023-06-10T08:12:35.554Z,67.28
2023-06-10T08:16:54.860Z,68.98
2023-06-10T08:21:12.515Z,66.93
2023-06-10T08:25:31.145Z,66.80
2023-06-10T08:29:49.550Z,64.91
2023-06-10T08:34:07.155Z,65.05
2023-06-10T08:38:25.928Z,67.94
2023-06-10T08:42:53.097Z,65.22
2023-06-10T08:47:17.231Z,65.42
2023-06-10T08:51:37.896Z,65.64
2023-06-10T08:56:00.358Z,64.87
2023-06-10T09:00:18.469Z,62.52
2023-06-10T09:04:37.550Z,59.49
2023-06-10T09:09:00.892Z,58.93
2023-06-10T09:13:21.163Z,55.62
2023-06-10T09:17:39.370Z,55.78
2023-06-10T09:21:57.825Z,56.44
2023-06-10T09:26:17.001Z,59.24
2023-06-10T09:30:36.062Z,59.32
2023-06-10T09:34:54.537Z,58.52
2023-06-10T09:39:19.350Z,60.07
2023-06-10T09:43:55.389Z,60.76
2023-06-10T09:48:14.528Z,61.50
2023-06-10T09:52:33.119Z,61.68
2023-06-10T09:56:53.384Z,60.90
2023-06-10T10:01:14.130Z,59.49
2023-06-10T10:05:31.975Z,60.62
2023-06-10T10:09:51.824Z,60.88
2023-06-10T10:14:10.900Z,61.86
2023-06-10T10:18:32.892Z,60.38
2023-06-10T10:22:53.941Z,60.56
2023-06-10T10:27:54.019Z,58.78
2023-06-10T10:32:16.067Z,57.11
2023-06-10T10:36:34.369Z,55.82
2023-06-10T10:40:53.295Z,55.41
2023-06-10T10:45:12.446Z,57.52
2023-06-10T10:49:32.439Z,55.88
2023-06-10T10:54:15.574Z,53.16
2023-06-10T10:58:36.042Z,53.64
2023-06-10T11:02:57.385Z,55.63
2023-06-10T11:07:23.289Z,54.19
2023-06-10T11:11:51.503Z,46.60
2023-06-10T11:16:11.719Z,42.44
2023-06-10T11:20:59.849Z,46.18
2023-06-10T11:25:18.041Z,53.30
2023-06-10T11:29:35.728Z,47.60
2023-06-10T11:34:06.957Z,47.06
2023-06-10T11:38:24.764Z,47.27
2023-06-10T11:42:44.310Z,51.14
2023-06-10T11:47:01.942Z,46.83
2023-06-10T11:51:21.357Z,39.93
2023-06-10T11:55:52.645Z,37.75
2023-06-10T12:00:10.725Z,32.89
2023-06-10T12:04:28.417Z,35.56
2023-06-10T12:08:46.303Z,31.60
2023-06-10T12:13:06.833Z,32.83
2023-06-10T12:17:34.522Z,33.46
2023-06-10T12:21:54.849Z,31.38
2023-06-10T12:26:12.468Z,36.36
2023-06-10T12:30:31.358Z,34.35
2023-06-10T12:34:49.597Z,41.00
2023-06-10T12:39:07.801Z,35.64
2023-06-10T12:43:26.435Z,29.91
2023-06-10T12:47:44.101Z,26.30
2023-06-10T12:52:02.945Z,24.36
2023-06-10T12:56:21.481Z,23.30
2023-06-10T13:00:40.244Z,21.43
2023-06-10T13:04:57.558Z,26.87
2023-06-10T13:09:16.691Z,36.96
2023-06-10T13:13:36.556Z,29.32
2023-06-10T13:17:54.625Z,24.52
2023-06-10T13:22:14.175Z,24.85
2023-06-10T13:26:32.626Z,23.30
2023-06-10T13:30:51.279Z,29.73
2023-06-10T13:35:10.602Z,26.74
2023-06-10T13:39:29.125Z,38.10
2023-06-10T13:43:47.473Z,44.79
2023-06-10T13:48:08.197Z,25.66
2023-06-10T13:52:26.242Z,25.23
2023-06-10T13:56:44.033Z,24.33
2023-06-10T14:01:03.214Z,35.17
2023-06-10T14:05:21.828Z,47.59
2023-06-10T14:09:41.792Z,54.93
2023-06-10T14:14:00.913Z,62.30
2023-06-10T14:18:19.088Z,66.71
2023-06-10T14:22:37.066Z,68.16
2023-06-10T14:26:55.392Z,69.37
2023-06-10T14:31:13.101Z,70.38
2023-06-10T14:35:32.206Z,70.46
2023-06-10T14:39:49.960Z,70.88
2023-06-10T14:44:08.590Z,69.62
2023-06-10T14:48:28.928Z,68.72
2023-06-10T14:52:46.959Z,65.32
2023-06-10T14:57:04.858Z,62.23
2023-06-10T15:01:23.436Z,54.41
2023-06-10T15:05:41.140Z,44.62
2023-06-10T15:09:58.712Z,35.72
2023-06-10T15:14:16.493Z,37.91
2023-06-10T15:18:34.745Z,50.12
2023-06-10T15:22:52.731Z,56.68
2023-06-10T15:27:11.473Z,57.29
2023-06-10T15:31:29.737Z,56.53
2023-06-10T15:35:47.392Z,56.14
2023-06-10T15:40:06.671Z,55.29
2023-06-10T15:44:24.267Z,56.89
2023-06-10T15:48:43.243Z,58.94
2023-06-10T15:53:01.580Z,58.67
2023-06-10T15:57:23.456Z,49.05
2023-06-10T16:01:42.686Z,50.24
2023-06-10T16:06:01.797Z,55.44
2023-06-10T16:10:20.417Z,56.45
2023-06-10T16:14:38.020Z,57.62
2023-06-10T16:18:56.277Z,47.26
2023-06-10T16:23:14.798Z,49.42
2023-06-10T16:27:32.376Z,55.53
2023-06-10T16:31:51.336Z,60.48
2023-06-10T16:36:08.558Z,61.98
2023-06-10T16:40:26.792Z,62.73
2023-06-10T16:44:44.917Z,62.41
2023-06-10T16:49:03.527Z,62.93
2023-06-10T16:53:21.220Z,63.49
2023-06-10T16:57:39.757Z,63.28
2023-06-10T17:01:59.217Z,63.83
2023-06-10T17:06:19.586Z,64.22
2023-06-10T17:10:37.565Z,64.51
2023-06-10T17:14:55.578Z,64.50
2023-06-10T17:19:13.910Z,64.84
2023-06-10T17:23:32.002Z,65.94
2023-06-10T17:27:51.994Z,66.31
2023-06-10T17:32:10.618Z,66.99
2023-06-10T17:36:29.284Z,67.50
2023-06-10T17:40:47.088Z,67.60
2023-06-10T17:45:04.957Z,68.19
2023-06-10T17:49:31.610Z,68.66
2023-06-10T17:53:51.492Z,68.51
2023-06-10T17:58:09.562Z,69.05
2023-06-10T18:02:27.390Z,69.64
2023-06-10T18:06:46.725Z,70.30
2023-06-10T18:11:04.369Z,70.70
2023-06-10T18:15:22.536Z,71.51
2023-06-10T18:19:40.540Z,71.95
2023-06-10T18:23:58.929Z,72.41
2023-06-10T18:28:17.557Z,72.95
2023-06-10T18:32:35.728Z,73.39
2023-06-10T18:36:55.356Z,74.02
2023-06-10T18:41:13.606Z,74.89
2023-06-10T18:45:31.958Z,75.63
2023-06-10T18:49:49.707Z,75.52
2023-06-10T18:54:08.146Z,75.97
2023-06-10T18:58:25.972Z,76.02
2023-06-10T19:02:46.295Z,76.58
2023-06-10T19:07:04.719Z,77.83
2023-06-10T19:11:23.185Z,78.36
2023-06-10T19:15:42.657Z,79.14
2023-06-10T19:20:00.584Z,79.11
2023-06-10T19:24:21.418Z,79.62
2023-06-10T19:28:39.734Z,80.42
2023-06-10T19:32:58.199Z,81.00
2023-06-10T19:37:16.756Z,81.46
2023-06-10T19:41:37.139Z,82.24
2023-06-10T19:45:55.849Z,83.18
2023-06-10T19:50:15.686Z,83.47
2023-06-10T19:54:37.941Z,83.46
2023-06-10T19:58:55.075Z,83.69
2023-06-10T20:03:13.591Z,84.40
2023-06-10T20:07:32.508Z,84.84
2023-06-10T20:11:51.523Z,85.24
2023-06-10T20:16:09.231Z,85.61
2023-06-10T20:20:28.753Z,86.14
2023-06-10T20:24:48.795Z,86.53
2023-06-10T20:29:06.636Z,86.97
2023-06-10T20:33:24.937Z,87.31
2023-06-10T20:37:43.699Z,87.66
2023-06-10T20:42:01.332Z,87.78
2023-06-10T20:46:19.669Z,88.04
2023-06-10T20:50:38.343Z,88.21
2023-06-10T20:54:57.523Z,88.41
2023-06-10T20:59:16.278Z,88.64
2023-06-10T21:03:33.961Z,88.88
2023-06-10T21:07:52.490Z,89.11
2023-06-10T21:12:11.856Z,89.20
2023-06-10T21:16:31.766Z,89.39
2023-06-10T21:20:50.657Z,89.48
2023-06-10T21:25:10.465Z,89.71
2023-06-10T21:29:29.927Z,89.95
2023-06-10T21:33:48.076Z,90.08
2023-06-10T21:38:07.427Z,90.18
2023-06-10T21:42:25.078Z,89.99
2023-06-10T21:46:43.480Z,89.71
2023-06-10T21:51:01.129Z,89.41
2023-06-10T21:55:19.597Z,89.10
2023-06-10T21:59:39.769Z,88.98
2023-06-10T22:03:57.645Z,88.92
2023-06-10T22:08:16.771Z,88.47
2023-06-10T22:12:34.396Z,88.24
2023-06-10T22:16:54.184Z,87.94
2023-06-10T22:21:12.708Z,87.88
2023-06-10T22:25:30.810Z,88.12
2023-06-10T22:29:48.946Z,88.32
2023-06-10T22:34:07.289Z,88.08
2023-06-10T22:38:25.859Z,88.15
2023-06-10T22:42:42.916Z,88.43
2023-06-10T22:47:02.131Z,88.59
2023-06-10T22:51:21.178Z,88.22
2023-06-10T22:55:38.873Z,88.14
2023-06-10T22:59:57.316Z,88.11
2023-06-10T23:04:15.024Z,88.01
2023-06-10T23:08:33.175Z,88.27
2023-06-10T23:12:51.503Z,88.42
2023-06-10T23:17:09.872Z,88.82
2023-06-10T23:21:35.385Z,89.07
2023-06-10T23:25:53.554Z,89.32
2023-06-10T23:30:11.615Z,89.50
2023-06-10T23:34:29.562Z,89.65
2023-06-10T23:38:47.690Z,90.08
2023-06-10T23:43:05.419Z,90.21
2023-06-10T23:47:23.571Z,90.40
2023-06-10T23:51:41.947Z,90.47
2023-06-10T23:55:59.522Z,90.48
